createdAt,value
2024-01-22T00:00:24.276Z,33.23
2024-01-22T00:02:50.710Z,33.35
2024-01-22T00:05:17.113Z,33.24
2024-01-22T00:07:43.578Z,33.22
2024-01-22T00:10:10.166Z,33.10
2024-01-22T00:12:38.191Z,33.31
2024-01-22T00:15:04.958Z,33.30
2024-01-22T00:17:31.380Z,33.15
2024-01-22T00:19:57.793Z,33.19
2024-01-22T00:22:24.201Z,33.17
2024-01-22T00:24:50.735Z,33.09
2024-01-22T00:27:17.214Z,33.13
2024-01-22T00:29:43.790Z,33.05
2024-01-22T00:32:10.188Z,33.14
2024-01-22T00:34:36.599Z,33.12
2024-01-22T00:37:03.062Z,33.04
2024-01-22T00:39:29.513Z,33.09
2024-01-22T00:41:57.706Z,33.29
2024-01-22T00:44:24.186Z,33.33
2024-01-22T00:46:50.663Z,33.40
2024-01-22T00:49:17.124Z,33.37
2024-01-22T00:51:43.598Z,33.32
2024-01-22T00:54:10.278Z,33.44
2024-01-22T00:56:36.856Z,33.21
2024-01-22T00:59:03.284Z,33.27
2024-01-22T01:01:31.587Z,33.39
2024-01-22T01:03:58.124Z,33.42
2024-01-22T01:06:24.651Z,33.46
2024-01-22T01:08:51.062Z,33.37
2024-01-22T01:11:17.510Z,33.44
2024-01-22T01:13:44.277Z,33.43
2024-01-22T01:16:11.057Z,33.48
2024-01-22T01:18:37.553Z,33.36
2024-01-22T01:21:04.037Z,33.37
2024-01-22T01:23:30.515Z,33.41
2024-01-22T01:25:56.921Z,33.67
2024-01-22T01:28:24.215Z,33.66
2024-01-22T01:30:50.620Z,33.67
2024-01-22T01:33:17.145Z,33.73
2024-01-22T01:35:46.118Z,33.68
2024-01-22T01:38:12.908Z,33.59
2024-01-22T01:40:42.525Z,33.57
2024-01-22T01:43:09.332Z,33.56
2024-01-22T01:45:35.746Z,33.58
2024-01-22T01:48:02.597Z,33.45
2024-01-22T01:50:29.479Z,33.59
2024-01-22T01:52:56.062Z,33.53
2024-01-22T01:55:23.222Z,33.53
2024-01-22T01:57:53.351Z,33.36
2024-01-22T02:00:24.086Z,33.39
2024-01-22T02:02:50.651Z,33.46
2024-01-22T02:05:18.189Z,33.38
2024-01-22T02:07:44.974Z,33.23
2024-01-22T02:10:14.715Z,33.37
2024-01-22T02:12:41.338Z,33.33
2024-01-22T02:15:07.996Z,33.41
2024-01-22T02:17:34.559Z,33.38
2024-01-22T02:20:01.098Z,33.35
2024-01-22T02:22:27.505Z,33.56
2024-01-22T02:24:54.081Z,33.48
2024-01-22T02:27:21.951Z,33.52
2024-01-22T02:29:48.551Z,33.37
2024-01-22T02:32:15.062Z,33.48
2024-01-22T02:34:41.461Z,33.56
2024-01-22T02:37:07.921Z,33.41
2024-01-22T02:39:34.553Z,33.50
2024-01-22T02:42:01.105Z,33.39
2024-01-22T02:44:27.551Z,33.41
2024-01-22T02:46:53.982Z,33.59
2024-01-22T02:49:20.760Z,33.67
2024-01-22T02:51:47.392Z,33.50
2024-01-22T02:54:14.217Z,33.49
2024-01-22T02:56:41.120Z,33.48
2024-01-22T02:59:08.099Z,33.67
2024-01-22T03:01:34.497Z,33.64
2024-01-22T03:04:00.981Z,33.70
2024-01-22T03:06:27.808Z,33.66
2024-01-22T03:08:54.475Z,33.64
2024-01-22T03:11:20.956Z,33.62
2024-01-22T03:13:47.669Z,33.66
2024-01-22T03:16:14.109Z,33.60
2024-01-22T03:18:40.647Z,33.71
2024-01-22T03:21:07.296Z,33.78
2024-01-22T03:23:33.922Z,33.71
2024-01-22T03:26:00.428Z,33.69
2024-01-22T03:28:27.123Z,33.72
2024-01-22T03:30:53.830Z,33.69
2024-01-22T03:33:20.511Z,33.84
2024-01-22T03:35:47.093Z,33.71
2024-01-22T03:38:14.122Z,33.74
2024-01-22T03:40:40.558Z,33.71
2024-01-22T03:43:06.959Z,33.66
2024-01-22T03:45:33.335Z,33.74
2024-01-22T03:47:59.887Z,33.73
2024-01-22T03:50:26.456Z,33.89
2024-01-22T03:52:52.872Z,33.88
2024-01-22T03:55:19.326Z,33.83
2024-01-22T03:57:46.014Z,33.90
2024-01-22T04:00:13.384Z,33.86
2024-01-22T04:02:40.022Z,33.87
2024-01-22T04:05:07.849Z,33.93
2024-01-22T04:07:34.568Z,33.90
2024-01-22T04:10:00.957Z,34.04
2024-01-22T04:12:27.375Z,34.06
2024-01-22T04:14:53.860Z,34.05
2024-01-22T04:17:20.387Z,34.01
2024-01-22T04:19:47.000Z,34.08
2024-01-22T04:22:13.465Z,34.17
2024-01-22T04:24:41.011Z,33.99
2024-01-22T04:27:07.602Z,34.27
2024-01-22T04:29:35.566Z,34.29
2024-01-22T04:32:02.461Z,34.43
2024-01-22T04:34:29.190Z,34.43
2024-01-22T04:36:56.044Z,34.34
2024-01-22T04:39:22.583Z,34.44
2024-01-22T04:41:49.185Z,34.49
2024-01-22T04:44:15.658Z,34.46
2024-01-22T04:46:42.090Z,34.56
2024-01-22T04:49:10.054Z,34.66
2024-01-22T04:51:36.618Z,34.78
2024-01-22T04:54:03.241Z,34.72
2024-01-22T04:56:29.824Z,34.75
2024-01-22T04:58:56.233Z,34.79
2024-01-22T05:01:22.860Z,34.83
2024-01-22T05:03:49.706Z,34.95
2024-01-22T05:06:16.633Z,35.05
2024-01-22T05:08:43.684Z,35.01
2024-01-22T05:11:10.447Z,35.07
2024-01-22T05:13:36.908Z,35.07
2024-01-22T05:16:03.367Z,35.19
2024-01-22T05:18:29.914Z,36.24
2024-01-22T05:20:56.374Z,36.33
2024-01-22T05:23:23.121Z,36.18
2024-01-22T05:25:49.542Z,35.98
2024-01-22T05:28:15.926Z,35.98
2024-01-22T05:30:42.335Z,35.92
2024-01-22T05:33:08.859Z,35.89
2024-01-22T05:35:35.407Z,35.73
2024-01-22T05:38:01.867Z,35.72
2024-01-22T05:40:28.298Z,35.67
2024-01-22T05:42:54.681Z,35.68
2024-01-22T05:45:21.184Z,35.68
2024-01-22T05:47:47.719Z,35.56
2024-01-22T05:50:14.484Z,35.51
2024-01-22T05:52:40.874Z,35.45
2024-01-22T05:55:07.520Z,35.45
2024-01-22T05:57:33.909Z,35.53
2024-01-22T06:00:00.441Z,35.48
2024-01-22T06:02:29.313Z,35.46
2024-01-22T06:04:57.186Z,35.52
2024-01-22T06:07:23.751Z,35.46
2024-01-22T06:09:55.509Z,35.44
2024-01-22T06:12:28.702Z,35.44
2024-01-22T06:14:55.279Z,35.40
2024-01-22T06:17:21.890Z,35.50
2024-01-22T06:19:49.028Z,35.49
2024-01-22T06:22:15.579Z,35.37
2024-01-22T06:24:42.393Z,35.44
2024-01-22T06:27:09.202Z,35.35
2024-01-22T06:29:36.573Z,35.30
2024-01-22T06:32:03.301Z,35.35
2024-01-22T06:34:29.789Z,35.35
2024-01-22T06:36:56.296Z,35.35
2024-01-22T06:39:22.732Z,35.46
2024-01-22T06:41:49.175Z,35.44
2024-01-22T06:44:16.646Z,35.42
2024-01-22T06:46:43.129Z,35.34
2024-01-22T06:49:11.287Z,35.46
2024-01-22T06:51:45.324Z,35.32
2024-01-22T06:54:13.440Z,35.32
2024-01-22T06:56:39.957Z,35.38
2024-01-22T06:59:06.378Z,35.34
2024-01-22T07:01:32.800Z,35.48
2024-01-22T07:03:59.331Z,35.50
2024-01-22T07:06:26.995Z,35.55
2024-01-22T07:08:53.528Z,35.54
2024-01-22T07:11:20.209Z,35.56
2024-01-22T07:13:46.691Z,35.80
2024-01-22T07:16:13.153Z,35.67
2024-01-22T07:18:39.774Z,35.45
2024-01-22T07:21:08.129Z,35.57
2024-01-22T07:23:34.601Z,35.59
2024-01-22T07:26:00.962Z,35.54
2024-01-22T07:28:28.225Z,35.59
2024-01-22T07:30:54.895Z,35.62
2024-01-22T07:33:21.627Z,35.63
2024-01-22T07:35:48.165Z,35.73
2024-01-22T07:38:14.582Z,35.69
2024-01-22T07:40:40.962Z,35.68
2024-01-22T07:43:07.990Z,35.65
2024-01-22T07:45:34.832Z,35.72
2024-01-22T07:48:01.616Z,35.68
2024-01-22T07:50:28.060Z,35.57
2024-01-22T07:52:54.780Z,35.69
2024-01-22T07:55:21.270Z,35.68
2024-01-22T07:57:47.699Z,35.77
2024-01-22T08:00:14.708Z,35.67
2024-01-22T08:02:41.365Z,35.88
2024-01-22T08:05:08.312Z,35.92
2024-01-22T08:07:35.120Z,36.04
2024-01-22T08:10:01.890Z,35.92
2024-01-22T08:12:28.313Z,35.81
2024-01-22T08:14:54.942Z,35.82
2024-01-22T08:17:21.428Z,35.85
2024-01-22T08:19:47.883Z,35.89
2024-01-22T08:22:14.348Z,35.89
2024-01-22T08:24:40.863Z,35.86
2024-01-22T08:27:07.407Z,36.06
2024-01-22T08:29:33.825Z,36.09
2024-01-22T08:32:00.312Z,36.20
2024-01-22T08:34:27.144Z,36.18
2024-01-22T08:36:53.740Z,36.27
2024-01-22T08:39:20.295Z,36.38
2024-01-22T08:41:46.797Z,36.53
2024-01-22T08:44:13.252Z,37.51
2024-01-22T08:46:39.622Z,37.99
2024-01-22T08:49:06.647Z,37.84
2024-01-22T08:51:33.288Z,37.98
2024-01-22T08:53:59.731Z,38.24
2024-01-22T08:56:26.553Z,38.45
2024-01-22T08:58:53.508Z,38.16
2024-01-22T09:01:20.195Z,38.05
2024-01-22T09:03:46.799Z,38.01
2024-01-22T09:06:13.773Z,38.03
2024-01-22T09:08:41.263Z,38.14
2024-01-22T09:11:07.660Z,38.15
2024-01-22T09:13:34.093Z,38.22
2024-01-22T09:16:00.575Z,38.11
2024-01-22T09:18:27.140Z,38.06
2024-01-22T09:20:53.971Z,38.16
2024-01-22T09:23:20.413Z,38.01
2024-01-22T09:25:47.034Z,38.05
2024-01-22T09:28:15.410Z,38.04
2024-01-22T09:30:42.476Z,37.90
2024-01-22T09:33:10.976Z,37.88
2024-01-22T09:35:42.119Z,37.91
2024-01-22T09:38:08.833Z,37.89
2024-01-22T09:40:35.457Z,37.75
2024-01-22T09:43:05.256Z,37.70
2024-01-22T09:45:32.444Z,37.72
2024-01-22T09:48:01.880Z,37.72
2024-01-22T09:50:28.855Z,37.68
2024-01-22T09:53:00.430Z,37.63
2024-01-22T09:55:26.965Z,37.54
2024-01-22T09:57:54.010Z,37.68
2024-01-22T10:00:26.932Z,37.55
2024-01-22T10:02:53.773Z,37.54
2024-01-22T10:05:20.675Z,37.54
2024-01-22T10:07:48.565Z,37.49
2024-01-22T10:10:16.697Z,37.38
2024-01-22T10:13:09.864Z,37.43
2024-01-22T10:15:36.598Z,37.49
2024-01-22T10:18:14.225Z,37.43
2024-01-22T10:20:42.096Z,37.39
2024-01-22T10:23:09.888Z,37.37
2024-01-22T10:25:37.108Z,37.35
2024-01-22T10:28:12.861Z,37.38
2024-01-22T10:30:40.136Z,37.43
2024-01-22T10:33:11.483Z,37.42
2024-01-22T10:35:38.243Z,37.31
2024-01-22T10:38:11.973Z,37.37
2024-01-22T10:40:39.027Z,37.31
2024-01-22T10:43:17.894Z,37.34
2024-01-22T10:45:46.301Z,37.39
2024-01-22T10:48:20.452Z,37.29
2024-01-22T10:50:54.408Z,37.22
2024-01-22T10:53:21.665Z,37.46
2024-01-22T10:55:54.030Z,37.34
2024-01-22T10:58:23.463Z,37.35
2024-01-22T11:00:51.596Z,37.34
2024-01-22T11:03:19.329Z,37.33
2024-01-22T11:05:49.974Z,37.25
2024-01-22T11:08:17.130Z,37.35
2024-01-22T11:10:44.347Z,37.24
2024-01-22T11:13:11.706Z,37.28
2024-01-22T11:15:38.223Z,37.20
2024-01-22T11:18:05.537Z,37.29
2024-01-22T11:20:33.595Z,37.22
2024-01-22T11:23:03.184Z,37.15
2024-01-22T11:25:30.013Z,37.30
2024-01-22T11:28:03.941Z,37.29
2024-01-22T11:30:34.052Z,37.27
2024-01-22T11:33:01.541Z,37.29
2024-01-22T11:35:38.259Z,37.36
2024-01-22T11:38:06.115Z,37.40
2024-01-22T11:40:53.848Z,37.33
2024-01-22T11:43:21.085Z,37.39
2024-01-22T11:45:48.432Z,37.56
2024-01-22T11:48:16.506Z,37.39
2024-01-22T11:50:44.618Z,37.33
2024-01-22T11:53:11.712Z,37.41
2024-01-22T11:55:40.435Z,37.40
2024-01-22T11:58:11.113Z,37.27
2024-01-22T12:00:37.629Z,37.30
2024-01-22T12:03:04.156Z,37.36
2024-01-22T12:05:30.568Z,37.28
2024-01-22T12:07:58.589Z,37.33
2024-01-22T12:10:26.816Z,37.38
2024-01-22T12:12:56.475Z,38.38
2024-01-22T12:15:25.245Z,38.99
2024-01-22T12:17:52.041Z,39.05
2024-01-22T12:20:19.506Z,39.10
2024-01-22T12:22:46.193Z,39.20
2024-01-22T12:25:15.894Z,38.96
2024-01-22T12:27:42.431Z,38.91
2024-01-22T12:30:09.925Z,38.93
2024-01-22T12:32:37.348Z,38.97
2024-01-22T12:35:05.062Z,38.87
2024-01-22T12:37:32.393Z,38.99
2024-01-22T12:40:05.735Z,38.89
2024-01-22T12:42:32.397Z,39.04
2024-01-22T12:45:00.098Z,38.97
2024-01-22T12:47:28.175Z,38.82
2024-01-22T12:49:55.758Z,39.01
2024-01-22T12:52:22.868Z,39.02
2024-01-22T12:54:50.156Z,38.97
2024-01-22T12:57:16.931Z,39.01
2024-01-22T12:59:47.539Z,38.95
2024-01-22T13:02:15.500Z,38.86
2024-01-22T13:04:43.107Z,38.97
2024-01-22T13:07:10.243Z,38.94
2024-01-22T13:09:37.036Z,38.88
2024-01-22T13:12:04.157Z,38.86
2024-01-22T13:14:32.369Z,38.94
2024-01-22T13:17:05.853Z,38.86
2024-01-22T13:19:35.262Z,38.99
2024-01-22T13:22:03.853Z,39.03
2024-01-22T13:24:33.718Z,38.94
2024-01-22T13:27:01.425Z,39.07
2024-01-22T13:29:29.193Z,39.01
2024-01-22T13:31:56.943Z,38.98
2024-01-22T13:34:25.376Z,39.02
2024-01-22T13:36:52.277Z,39.00
2024-01-22T13:39:18.931Z,39.01
2024-01-22T13:41:45.483Z,38.95
2024-01-22T13:44:15.555Z,38.96
2024-01-22T13:46:42.312Z,39.01
2024-01-22T13:49:10.425Z,39.04
2024-01-22T13:51:37.947Z,39.00
2024-01-22T13:54:05.329Z,38.98
2024-01-22T13:56:35.615Z,38.95
2024-01-22T13:59:02.595Z,38.92
2024-01-22T14:01:29.086Z,39.01
2024-01-22T14:03:55.799Z,39.07
2024-01-22T14:06:22.325Z,39.07
2024-01-22T14:08:49.256Z,39.02
2024-01-22T14:11:17.594Z,39.06
2024-01-22T14:13:44.919Z,39.10
2024-01-22T14:16:12.416Z,39.04
2024-01-22T14:18:39.435Z,38.94
2024-01-22T14:21:07.526Z,39.05
2024-01-22T14:23:35.226Z,39.10
2024-01-22T14:26:02.210Z,39.09
2024-01-22T14:28:29.254Z,39.07
2024-01-22T14:30:56.177Z,39.11
2024-01-22T14:33:23.873Z,39.13
2024-01-22T14:35:51.797Z,39.13
2024-01-22T14:38:25.745Z,39.08
2024-01-22T14:40:58.357Z,39.15
2024-01-22T14:43:25.848Z,39.00
2024-01-22T14:45:52.468Z,39.04
2024-01-22T14:48:21.157Z,39.05
2024-01-22T14:50:47.894Z,39.11
2024-01-22T14:53:14.364Z,38.93
2024-01-22T14:55:40.792Z,39.32
2024-01-22T14:58:07.526Z,39.08
2024-01-22T15:00:36.891Z,39.07
2024-01-22T15:03:04.299Z,39.13
2024-01-22T15:05:31.877Z,39.02
2024-01-22T15:07:59.383Z,39.00
2024-01-22T15:10:25.933Z,38.98
2024-01-22T15:12:52.370Z,39.05
2024-01-22T15:15:18.927Z,39.03
2024-01-22T15:17:45.461Z,39.13
2024-01-22T15:20:13.188Z,39.06
2024-01-22T15:22:39.765Z,39.13
2024-01-22T15:25:07.016Z,39.15
2024-01-22T15:27:33.960Z,39.00
2024-01-22T15:30:01.039Z,38.99
2024-01-22T15:32:29.227Z,39.08
2024-01-22T15:34:56.717Z,39.10
2024-01-22T15:37:23.457Z,39.07
2024-01-22T15:39:50.967Z,39.87
2024-01-22T15:42:17.744Z,41.63
2024-01-22T15:44:44.545Z,41.95
2024-01-22T15:47:11.558Z,43.09
2024-01-22T15:49:38.640Z,44.21
2024-01-22T15:52:05.339Z,44.57
2024-01-22T15:54:32.334Z,44.95
2024-01-22T15:56:58.970Z,44.95
2024-01-22T15:59:26.929Z,45.39
2024-01-22T16:01:53.450Z,45.60
2024-01-22T16:04:20.023Z,45.66
2024-01-22T16:06:53.856Z,45.99
2024-01-22T16:09:29.304Z,46.20
2024-01-22T16:11:56.221Z,46.25
2024-01-22T16:14:22.837Z,46.46
2024-01-22T16:16:49.393Z,46.71
2024-01-22T16:19:18.701Z,46.48
2024-01-22T16:21:54.063Z,46.67
2024-01-22T16:24:21.364Z,46.83
2024-01-22T16:26:48.393Z,47.05
2024-01-22T16:29:15.211Z,47.02
2024-01-22T16:31:42.190Z,46.97
2024-01-22T16:34:08.756Z,47.02
2024-01-22T16:36:41.528Z,47.12
2024-01-22T16:39:08.494Z,47.08
2024-01-22T16:41:35.200Z,47.29
2024-01-22T16:44:01.647Z,47.27
2024-01-22T16:46:28.389Z,47.26
2024-01-22T16:48:57.537Z,47.28
2024-01-22T16:51:24.512Z,47.38
2024-01-22T16:53:51.427Z,47.37
2024-01-22T16:56:17.966Z,47.41
2024-01-22T16:58:44.416Z,47.32
2024-01-22T17:01:10.876Z,47.68
2024-01-22T17:03:38.483Z,47.73
2024-01-22T17:06:05.096Z,47.70
2024-01-22T17:08:31.628Z,47.73
2024-01-22T17:10:59.379Z,47.75
2024-01-22T17:13:26.167Z,47.84
2024-01-22T17:15:52.701Z,47.84
2024-01-22T17:18:20.560Z,47.83
2024-01-22T17:20:47.534Z,47.81
2024-01-22T17:23:14.149Z,47.85
2024-01-22T17:25:40.760Z,48.00
2024-01-22T17:28:07.295Z,47.91
2024-01-22T17:30:34.182Z,47.89
2024-01-22T17:33:01.692Z,47.94
2024-01-22T17:35:29.174Z,48.09
2024-01-22T17:37:56.767Z,48.11
2024-01-22T17:40:23.347Z,48.26
2024-01-22T17:42:49.881Z,48.13
2024-01-22T17:45:17.383Z,48.33
2024-01-22T17:47:44.189Z,48.35
2024-01-22T17:50:10.726Z,48.47
2024-01-22T17:52:38.598Z,48.46
2024-01-22T17:55:05.398Z,48.41
2024-01-22T17:57:32.037Z,48.53
2024-01-22T17:59:59.237Z,48.69
2024-01-22T18:02:25.737Z,48.61
2024-01-22T18:04:52.463Z,48.64
2024-01-22T18:07:19.033Z,48.76
2024-01-22T18:09:45.607Z,48.65
2024-01-22T18:12:12.014Z,48.75
2024-01-22T18:14:39.629Z,48.67
2024-01-22T18:17:06.447Z,48.86
2024-01-22T18:19:33.075Z,48.93
2024-01-22T18:21:59.594Z,48.86
2024-01-22T18:24:26.142Z,48.87
2024-01-22T18:26:53.095Z,48.86
2024-01-22T18:29:19.546Z,48.87
2024-01-22T18:31:45.971Z,48.90
2024-01-22T18:34:12.881Z,48.75
2024-01-22T18:36:39.663Z,48.97
2024-01-22T18:39:06.638Z,48.90
2024-01-22T18:41:35.907Z,48.90
2024-01-22T18:44:07.775Z,48.94
2024-01-22T18:46:34.131Z,49.04
2024-01-22T18:49:00.667Z,49.03
2024-01-22T18:51:27.145Z,48.70
2024-01-22T18:53:53.928Z,48.99
2024-01-22T18:56:20.703Z,48.94
2024-01-22T18:58:47.111Z,48.96
2024-01-22T19:01:13.656Z,48.94
2024-01-22T19:03:40.155Z,48.93
2024-01-22T19:06:07.062Z,49.09
2024-01-22T19:08:33.694Z,49.01
2024-01-22T19:11:00.087Z,49.03
2024-01-22T19:13:26.516Z,49.20
2024-01-22T19:15:52.989Z,49.15
2024-01-22T19:18:19.520Z,49.01
2024-01-22T19:20:47.417Z,49.10
2024-01-22T19:23:16.914Z,49.14
2024-01-22T19:25:44.313Z,49.09
2024-01-22T19:28:10.810Z,49.06
2024-01-22T19:30:37.220Z,49.03
2024-01-22T19:33:05.871Z,49.06
2024-01-22T19:35:32.378Z,49.15
2024-01-22T19:37:58.768Z,49.09
2024-01-22T19:40:25.243Z,49.17
2024-01-22T19:42:51.658Z,49.09
2024-01-22T19:45:18.054Z,49.08
2024-01-22T19:47:44.729Z,49.17
2024-01-22T19:50:11.338Z,49.17
2024-01-22T19:52:37.837Z,49.08
2024-01-22T19:55:04.368Z,49.08
2024-01-22T19:57:30.917Z,49.04
2024-01-22T19:59:57.611Z,49.05
2024-01-22T20:02:24.169Z,49.06
2024-01-22T20:04:51.966Z,48.92
2024-01-22T20:07:18.505Z,49.06
2024-01-22T20:09:47.049Z,49.10
2024-01-22T20:12:14.297Z,49.18
2024-01-22T20:14:40.833Z,49.09
2024-01-22T20:17:07.193Z,49.07
2024-01-22T20:19:33.949Z,48.87
2024-01-22T20:22:01.830Z,49.03
2024-01-22T20:24:28.502Z,48.88
2024-01-22T20:26:56.507Z,48.92
2024-01-22T20:29:26.192Z,49.10
2024-01-22T20:31:53.655Z,48.96
2024-01-22T20:34:20.204Z,49.09
2024-01-22T20:36:46.795Z,48.98
2024-01-22T20:39:15.289Z,48.98
2024-01-22T20:41:42.947Z,49.06
2024-01-22T20:44:09.944Z,49.01
2024-01-22T20:46:36.747Z,49.15
2024-01-22T20:49:03.271Z,49.11
2024-01-22T20:51:30.484Z,49.05
2024-01-22T20:53:57.485Z,49.10
2024-01-22T20:56:24.075Z,49.06
2024-01-22T20:58:50.790Z,49.06
2024-01-22T21:01:17.823Z,49.01
2024-01-22T21:03:45.037Z,49.14
2024-01-22T21:06:12.452Z,49.08
2024-01-22T21:08:39.307Z,49.23
2024-01-22T21:11:06.200Z,48.98
2024-01-22T21:13:33.296Z,49.12
2024-01-22T21:16:02.515Z,48.97
2024-01-22T21:18:30.024Z,49.01
2024-01-22T21:20:56.759Z,49.21
2024-01-22T21:23:23.389Z,48.98
2024-01-22T21:25:50.166Z,49.03
2024-01-22T21:28:17.435Z,49.06
2024-01-22T21:30:43.956Z,48.95
2024-01-22T21:33:10.714Z,49.05
2024-01-22T21:35:37.270Z,49.05
2024-01-22T21:38:03.791Z,49.00
2024-01-22T21:40:30.207Z,48.96
2024-01-22T21:42:56.682Z,48.97
2024-01-22T21:45:23.179Z,49.04
2024-01-22T21:47:49.758Z,49.05
2024-01-22T21:50:16.238Z,49.19
2024-01-22T21:52:42.610Z,48.99
2024-01-22T21:55:12.429Z,49.16
2024-01-22T21:57:39.640Z,49.10
2024-01-22T22:00:06.935Z,48.87
2024-01-22T22:02:34.279Z,48.81
2024-01-22T22:05:01.573Z,48.72
2024-01-22T22:07:28.873Z,48.79
2024-01-22T22:09:55.618Z,48.68
2024-01-22T22:12:22.606Z,48.54
2024-01-22T22:14:49.883Z,48.60
2024-01-22T22:17:29.803Z,48.43
2024-01-22T22:19:56.395Z,48.49
2024-01-22T22:22:23.084Z,48.59
2024-01-22T22:25:04.109Z,48.61
2024-01-22T22:27:30.686Z,48.35
2024-01-22T22:29:57.183Z,48.43
2024-01-22T22:32:23.726Z,48.69
2024-01-22T22:34:50.495Z,48.63
2024-01-22T22:37:19.067Z,48.65
2024-01-22T22:39:45.512Z,48.66
2024-01-22T22:42:12.013Z,48.73
2024-01-22T22:44:38.470Z,48.65
2024-01-22T22:47:04.992Z,48.59
2024-01-22T22:49:31.456Z,48.57
2024-01-22T22:51:58.736Z,48.57
2024-01-22T22:54:25.224Z,48.58
2024-01-22T22:56:51.774Z,48.54
2024-01-22T22:59:18.214Z,48.52
2024-01-22T23:01:45.442Z,48.60
2024-01-22T23:04:12.023Z,48.55
2024-01-22T23:06:38.894Z,48.53
2024-01-22T23:09:05.429Z,48.39
2024-01-22T23:11:32.331Z,47.82
2024-01-22T23:13:58.855Z,46.60
2024-01-22T23:16:25.403Z,45.37
2024-01-22T23:18:51.877Z,45.30
2024-01-22T23:21:18.428Z,45.55
2024-01-22T23:23:45.161Z,45.45
2024-01-22T23:26:11.564Z,45.47
2024-01-22T23:28:37.985Z,45.61
2024-01-22T23:31:04.546Z,45.57
2024-01-22T23:33:37.826Z,45.61
2024-01-22T23:36:04.567Z,45.70
2024-01-22T23:38:31.306Z,45.80
2024-01-22T23:40:57.921Z,45.76
2024-01-22T23:43:24.348Z,45.79
2024-01-22T23:45:50.702Z,45.95
2024-01-22T23:48:18.500Z,45.85
2024-01-22T23:50:45.970Z,45.82
2024-01-22T23:53:12.489Z,46.02
2024-01-22T23:55:38.906Z,45.92
2024-01-22T23:58:05.353Z,45.94
